San Pedro, Texas
Current Conditions -  °F | °C
As of 2:55 PM on Saturday 25 Oct 2014 (Local Time) from KRBO Reporting Station
Heavy Rain Heavy Rain  
Wind Chill: 85°   Ceiling: Unl
Heat Index: 85°   Visibility: 10mi
Dew Point: 59°   Wind: 8mph
Humidity: 42%   Direction: 60°ENE
Pressure: 30.1"   Gusts: NA
Location:  27.7757°N, 97.7554°W
Report Text: KRBO 251955Z AUTO 06007KT 10SM +RA CLR 30/15 A3010 RMK AO2 T02950152
Loading
Personal Weather Stations






























Interactive Weather Map
Tropical Storm Tracking
New forecast layout! Learn more

10-Day Weather Forecast

Advertisements
Track Severe Weather on mobile